createdAt,value
2024-03-26T00:03:51.066Z,0.32
2024-03-26T00:08:53.786Z,0.20
2024-03-26T00:13:57.916Z,0.12
2024-03-26T00:19:00.641Z,0.05
2024-03-26T00:24:03.344Z,-0.08
2024-03-26T00:29:06.890Z,-0.18
2024-03-26T00:34:09.645Z,-0.27
2024-03-26T00:39:12.398Z,-0.37
2024-03-26T00:44:15.076Z,-0.49
2024-03-26T00:49:17.827Z,-0.59
2024-03-26T00:54:22.165Z,-0.70
2024-03-26T00:59:26.110Z,-0.80
2024-03-26T01:04:28.846Z,-0.93
2024-03-26T01:09:31.539Z,-0.99
2024-03-26T01:14:34.231Z,-0.98
2024-03-26T01:19:36.910Z,-0.96
2024-03-26T01:24:39.907Z,-1.00
2024-03-26T01:29:42.663Z,-1.01
2024-03-26T01:34:45.366Z,-0.96
2024-03-26T01:39:48.158Z,-0.83
2024-03-26T01:44:50.870Z,-0.76
2024-03-26T01:49:56.004Z,-0.71
2024-03-26T01:54:59.882Z,-0.60
2024-03-26T02:00:04.216Z,-0.41
2024-03-26T02:05:07.290Z,-0.25
2024-03-26T02:10:10.136Z,-0.13
2024-03-26T02:15:12.875Z,-0.04
2024-03-26T02:20:16.356Z,0.01
2024-03-26T02:25:19.004Z,0.02
2024-03-26T02:30:21.778Z,0.05
2024-03-26T02:35:24.491Z,0.08
2024-03-26T02:40:27.324Z,0.06
2024-03-26T02:45:30.265Z,0.10
2024-03-26T02:50:32.956Z,0.22
2024-03-26T02:55:35.643Z,0.37
2024-03-26T03:00:38.372Z,0.43
2024-03-26T03:05:41.862Z,0.51
2024-03-26T03:10:44.555Z,0.60
2024-03-26T03:15:47.247Z,0.64
2024-03-26T03:20:50.173Z,0.64
2024-03-26T03:25:57.374Z,0.62
2024-03-26T03:31:00.071Z,0.65
2024-03-26T03:36:02.796Z,0.70
2024-03-26T03:41:05.533Z,0.74
2024-03-26T03:46:08.240Z,0.73
2024-03-26T03:51:10.936Z,0.79
2024-03-26T03:56:13.631Z,0.89
2024-03-26T04:01:16.333Z,0.84
2024-03-26T04:06:19.045Z,0.71
2024-03-26T04:11:21.778Z,0.68
2024-03-26T04:16:24.669Z,0.71
2024-03-26T04:21:27.398Z,0.77
2024-03-26T04:26:30.149Z,0.84
2024-03-26T04:31:32.826Z,0.85
2024-03-26T04:36:35.518Z,0.84
2024-03-26T04:41:38.436Z,0.91
2024-03-26T04:46:41.146Z,0.95
2024-03-26T04:51:43.831Z,0.86
2024-03-26T04:56:46.517Z,0.81
2024-03-26T05:01:49.758Z,0.79
2024-03-26T05:06:52.459Z,0.75
2024-03-26T05:11:55.865Z,0.71
2024-03-26T05:16:58.636Z,0.69
2024-03-26T05:22:01.457Z,0.68
2024-03-26T05:27:04.287Z,0.74
2024-03-26T05:32:06.972Z,0.81
2024-03-26T05:37:09.658Z,0.84
2024-03-26T05:42:12.487Z,0.83
2024-03-26T05:47:15.253Z,0.82
2024-03-26T05:52:17.928Z,0.88
2024-03-26T05:57:20.736Z,0.98
2024-03-26T06:02:23.421Z,1.06
2024-03-26T06:07:26.127Z,1.12
2024-03-26T06:12:28.911Z,1.10
2024-03-26T06:17:31.747Z,1.16
2024-03-26T06:22:34.989Z,1.35
2024-03-26T06:27:37.668Z,1.57
2024-03-26T06:32:40.774Z,1.69
2024-03-26T06:37:43.609Z,1.80
2024-03-26T06:42:46.349Z,1.92
2024-03-26T06:47:49.483Z,1.99
2024-03-26T06:52:52.331Z,2.06
2024-03-26T06:57:55.156Z,2.23
2024-03-26T07:02:58.532Z,2.42
2024-03-26T07:08:02.775Z,2.54
2024-03-26T07:13:09.399Z,2.71
2024-03-26T07:18:16.201Z,3.01
2024-03-26T07:23:22.205Z,3.33
2024-03-26T07:28:26.591Z,3.59
2024-03-26T07:33:31.014Z,3.82
2024-03-26T07:38:35.273Z,4.08
2024-03-26T07:43:38.771Z,4.37
2024-03-26T07:48:41.399Z,4.68
2024-03-26T07:53:44.282Z,4.95
2024-03-26T07:58:47.384Z,5.17
2024-03-26T08:03:51.045Z,5.39
2024-03-26T08:08:55.319Z,5.65
2024-03-26T08:13:58.681Z,5.90
2024-03-26T08:19:01.689Z,6.17
2024-03-26T08:24:07.443Z,6.39
2024-03-26T08:29:10.199Z,6.62
2024-03-26T08:34:12.939Z,6.90
2024-03-26T08:39:15.691Z,7.18
2024-03-26T08:44:18.452Z,7.46
2024-03-26T08:49:21.273Z,7.73
2024-03-26T08:54:24.483Z,8.09
2024-03-26T08:59:27.308Z,8.48
2024-03-26T09:04:30.362Z,8.79
2024-03-26T09:09:33.509Z,9.05
2024-03-26T09:14:36.929Z,9.26
2024-03-26T09:19:39.896Z,9.41
2024-03-26T09:24:50.419Z,9.60
2024-03-26T09:29:54.049Z,9.78
2024-03-26T09:34:56.798Z,9.93
2024-03-26T09:39:59.487Z,10.06
2024-03-26T09:45:06.122Z,10.22
2024-03-26T09:50:12.153Z,10.43
2024-03-26T09:55:17.525Z,10.64
2024-03-26T10:00:21.352Z,10.77
2024-03-26T10:05:25.919Z,10.90
2024-03-26T10:10:32.955Z,11.11
2024-03-26T10:15:36.166Z,11.42
2024-03-26T10:20:39.756Z,11.67
2024-03-26T10:25:42.523Z,11.81
2024-03-26T10:30:46.277Z,11.96
2024-03-26T10:35:55.814Z,12.17
2024-03-26T10:41:04.086Z,12.38
2024-03-26T10:46:08.360Z,12.48
2024-03-26T10:51:12.733Z,12.46
2024-03-26T10:56:16.865Z,12.56
2024-03-26T11:01:22.538Z,12.69
2024-03-26T11:06:29.632Z,12.70
2024-03-26T11:11:45.839Z,12.54
2024-03-26T11:22:15.577Z,12.81
2024-03-26T11:27:18.433Z,12.85
2024-03-26T11:32:22.516Z,12.78
2024-03-26T11:37:26.046Z,12.74
2024-03-26T11:42:28.979Z,12.71
2024-03-26T11:47:35.751Z,12.67
2024-03-26T11:52:39.863Z,12.70
2024-03-26T11:57:44.098Z,12.85
2024-03-26T12:02:47.505Z,13.09
2024-03-26T12:07:52.655Z,13.11
2024-03-26T12:12:56.229Z,13.13
2024-03-26T12:17:59.284Z,13.32
2024-03-26T12:23:05.858Z,13.43
2024-03-26T12:28:13.611Z,13.37
2024-03-26T12:33:16.455Z,13.22
2024-03-26T12:38:19.258Z,13.21
2024-03-26T12:43:21.853Z,13.16
2024-03-26T12:48:24.761Z,13.08
2024-03-26T12:53:28.806Z,12.92
2024-03-26T12:58:31.860Z,12.82
2024-03-26T13:03:34.955Z,12.66
2024-03-26T13:08:37.777Z,12.53
2024-03-26T13:13:42.381Z,12.53
2024-03-26T13:18:45.076Z,12.74
2024-03-26T13:23:48.155Z,12.85
2024-03-26T13:28:50.876Z,12.95
2024-03-26T13:33:54.486Z,13.16
2024-03-26T13:38:57.237Z,13.38
2024-03-26T13:44:00.584Z,13.61
2024-03-26T13:49:04.038Z,13.93
2024-03-26T13:54:06.967Z,14.28
2024-03-26T13:59:09.581Z,14.41
2024-03-26T14:04:12.429Z,14.15
2024-03-26T14:09:15.861Z,13.75
2024-03-26T14:14:19.138Z,13.47
2024-03-26T14:19:21.995Z,13.26
2024-03-26T14:24:25.353Z,12.98
2024-03-26T14:29:28.115Z,12.91
2024-03-26T14:34:32.097Z,12.86
2024-03-26T14:39:35.340Z,13.48
2024-03-26T14:44:37.915Z,13.78
2024-03-26T14:49:40.647Z,13.69
2024-03-26T14:54:43.795Z,13.87
2024-03-26T14:59:46.694Z,14.01
2024-03-26T15:04:49.704Z,14.24
2024-03-26T15:09:52.918Z,14.55
2024-03-26T15:14:55.620Z,14.75
2024-03-26T15:19:58.910Z,15.50
2024-03-26T15:25:02.093Z,15.90
2024-03-26T15:30:26.453Z,15.96
2024-03-26T15:35:29.467Z,15.72
2024-03-26T15:40:32.368Z,16.31
2024-03-26T15:45:35.488Z,16.77
2024-03-26T15:50:38.399Z,17.05
2024-03-26T15:55:41.115Z,17.14
2024-03-26T16:00:43.893Z,16.93
2024-03-26T16:05:46.881Z,16.81
2024-03-26T16:11:08.280Z,16.91
2024-03-26T16:16:14.088Z,16.72
2024-03-26T16:21:17.106Z,16.06
2024-03-26T16:26:20.060Z,15.12
2024-03-26T16:31:24.132Z,13.86
2024-03-26T16:36:27.713Z,12.66
2024-03-26T16:41:34.169Z,11.58
2024-03-26T16:46:38.509Z,10.65
2024-03-26T16:51:44.254Z,9.84
2024-03-26T16:56:47.043Z,9.19
2024-03-26T17:01:49.847Z,8.68
2024-03-26T17:06:52.953Z,8.23
2024-03-26T17:11:56.066Z,7.86
2024-03-26T17:17:09.565Z,7.55
2024-03-26T17:22:17.275Z,7.27
2024-03-26T17:27:20.243Z,7.07
2024-03-26T17:32:23.068Z,6.88
2024-03-26T17:37:26.248Z,6.69
2024-03-26T17:42:33.463Z,6.54
2024-03-26T17:47:36.412Z,6.40
2024-03-26T17:52:39.233Z,6.26
2024-03-26T17:57:42.469Z,6.17
2024-03-26T18:02:49.571Z,6.07
2024-03-26T18:07:52.479Z,5.96
2024-03-26T18:12:55.711Z,5.86
2024-03-26T18:17:58.406Z,5.83
2024-03-26T18:23:01.190Z,5.79
2024-03-26T18:28:05.024Z,5.78
2024-03-26T18:33:08.785Z,5.80
2024-03-26T18:38:14.504Z,5.82
2024-03-26T18:43:17.307Z,5.90
2024-03-26T18:48:21.084Z,5.98
2024-03-26T18:53:25.218Z,6.01
2024-03-26T18:58:29.609Z,6.03
2024-03-26T19:03:32.815Z,6.05
2024-03-26T19:08:35.817Z,6.05
2024-03-26T19:13:38.620Z,6.02
2024-03-26T19:18:41.831Z,5.95
2024-03-26T19:23:44.939Z,5.87
2024-03-26T19:28:47.847Z,5.76
2024-03-26T19:33:50.649Z,5.66
2024-03-26T19:38:53.451Z,5.55
2024-03-26T19:43:56.249Z,5.49
2024-03-26T19:48:59.772Z,5.53
2024-03-26T19:54:02.577Z,5.58
2024-03-26T19:59:05.367Z,5.65
2024-03-26T20:04:09.609Z,5.69
2024-03-26T20:09:12.521Z,5.70
2024-03-26T20:14:15.720Z,5.67
2024-03-26T20:19:18.828Z,5.63
2024-03-26T20:24:21.939Z,5.61
2024-03-26T20:29:24.843Z,5.60
2024-03-26T20:34:29.556Z,5.64
2024-03-26T20:39:32.488Z,5.69
2024-03-26T20:44:37.455Z,5.69
2024-03-26T20:49:40.854Z,5.67
2024-03-26T20:54:43.661Z,5.62
2024-03-26T20:59:46.468Z,5.54
2024-03-26T21:04:49.277Z,5.45
2024-03-26T21:09:52.370Z,5.36
2024-03-26T21:14:55.298Z,5.28
2024-03-26T21:20:13.645Z,5.25
2024-03-26T21:25:16.662Z,5.23
2024-03-26T21:30:19.451Z,5.22
2024-03-26T21:35:23.477Z,5.19
2024-03-26T21:40:26.601Z,5.09
2024-03-26T21:45:29.233Z,4.95
2024-03-26T21:50:32.085Z,4.86
2024-03-26T21:55:35.604Z,4.77
2024-03-26T22:00:38.401Z,4.72
2024-03-26T22:05:41.715Z,4.72
2024-03-26T22:10:44.477Z,4.70
2024-03-26T22:15:47.521Z,4.69
2024-03-26T22:20:54.562Z,4.66
2024-03-26T22:26:09.012Z,4.64
2024-03-26T22:31:12.215Z,4.60
2024-03-26T22:36:15.317Z,4.57
2024-03-26T22:41:18.422Z,4.59
2024-03-26T22:46:21.231Z,4.59
2024-03-26T22:51:24.138Z,4.58
2024-03-26T22:56:27.549Z,4.52
2024-03-26T23:01:30.347Z,4.44
2024-03-26T23:06:33.147Z,4.37
2024-03-26T23:11:36.053Z,4.33
2024-03-26T23:16:38.806Z,4.28
2024-03-26T23:21:43.511Z,4.30
2024-03-26T23:26:46.301Z,4.37
2024-03-26T23:31:49.409Z,4.40
2024-03-26T23:36:52.214Z,4.37
2024-03-26T23:41:55.010Z,4.29
2024-03-26T23:46:57.817Z,4.19
2024-03-26T23:52:00.841Z,4.11
2024-03-26T23:57:03.764Z,4.00
